Time;durP1;ratioP1;P1;durP2;ratioP2;P2;SDS_P1;SDS_P2;PMS_P1;PMS_P2;Temp;Humidity;BMP_temperature;BMP_pressure;BME280_temperature;BME280_humidity;BME280_pressure;Samples;Min_cycle;Max_cycle;Signal;HPM_P1;HPM_P2
2022/01/13 00:00:17;;;;;;;42.90;12.68;;;;;;;1.43;89.47;102722.41;4900418;29;20071;-76
2022/01/13 00:02:43;;;;;;;;;;;;;;;1.42;89.22;102726.00;4901227;29;20041;-76
2022/01/13 00:05:08;;;;;;;48.33;13.80;;;;;;;1.40;89.54;102717.28;4901200;29;19934;-76
2022/01/13 00:07:36;;;;;;;47.72;12.35;;;;;;;1.41;89.63;102719.00;4900883;29;20056;-76
2022/01/13 00:10:05;;;;;;;39.78;11.93;;;;;;;1.40;89.59;102717.28;4900710;29;20440;-77
2022/01/13 00:12:37;;;;;;;44.28;13.50;;;;;;;1.44;89.36;102707.31;4901186;29;20040;-77
2022/01/13 00:17:45;;;;;;;42.75;12.70;;;;;;;1.42;89.78;102718.03;4900034;29;20036;-76
2022/01/13 00:20:28;;;;;;;47.13;12.50;;;;;;;1.43;89.64;102722.41;4899895;29;20076;-76
2022/01/13 00:25:38;;;;;;;40.58;12.10;;;;;;;1.45;89.36;102725.81;4899913;29;20047;-77
2022/01/13 00:28:12;;;;;;;;;;;;;;;1.45;89.86;102731.13;4883564;29;20084;-76
2022/01/13 00:30:37;;;;;;;34.88;11.38;;;;;;;1.46;90.04;102735.50;4899641;29;19918;-76
2022/01/13 00:33:03;;;;;;;42.53;13.02;;;;;;;1.48;89.80;102733.59;4900007;29;20032;-76
2022/01/13 00:35:28;;;;;;;41.33;12.23;;;;;;;1.44;89.27;102733.88;4899682;29;20129;-76
2022/01/13 00:37:53;;;;;;;43.28;13.85;;;;;;;1.42;89.70;102736.63;4899018;29;20028;-77
2022/01/13 00:40:19;;;;;;;47.15;13.52;;;;;;;1.42;89.86;102728.66;4899550;29;20441;-77
2022/01/13 00:42:44;;;;;;;39.57;12.97;;;;;;;1.41;89.68;102728.75;4899761;29;20501;-76
2022/01/13 00:45:14;;;;;;;33.67;10.37;;;;;;;1.39;89.61;102723.53;4899988;29;20260;-77
2022/01/13 00:47:40;;;;;;;42.40;12.25;;;;;;;1.40;89.85;102727.91;4899907;29;20040;-76
2022/01/13 00:50:06;;;;;;;34.60;12.88;;;;;;;1.44;89.50;102736.53;4899600;29;20037;-76
2022/01/13 00:52:32;;;;;;;35.17;12.00;;;;;;;1.44;89.76;102734.72;4882679;29;20025;-77
2022/01/13 00:54:58;;;;;;;35.08;11.70;;;;;;;1.46;89.24;102734.63;4899316;29;20516;-76
2022/01/13 00:57:27;;;;;;;39.42;11.63;;;;;;;1.44;89.92;102737.38;4899041;29;20536;-77
2022/01/13 00:59:53;;;;;;;42.90;13.00;;;;;;;1.44;89.32;102731.22;4899186;29;20028;-77
2022/01/13 01:02:18;;;;;;;36.58;11.63;;;;;;;1.41;89.61;102726.09;4899406;29;20039;-77
2022/01/13 01:04:44;;;;;;;36.43;11.23;;;;;;;1.38;89.84;102732.44;4899146;29;20068;-76
2022/01/13 01:07:09;;;;;;;50.50;11.82;;;;;;;1.41;89.63;102728.75;4898794;29;20328;-76
2022/01/13 01:09:40;;;;;;;44.00;13.48;;;;;;;1.38;89.88;102735.97;4899252;29;20081;-77
2022/01/13 01:12:07;;;;;;;30.77;9.90;;;;;;;1.39;89.87;102732.34;4899104;29;20039;-76
2022/01/13 01:14:36;;;;;;;35.25;12.05;;;;;;;1.38;89.79;102733.28;4899434;29;20467;-76
2022/01/13 01:17:02;;;;;;;34.92;9.25;;;;;;;1.39;89.77;102739.47;4899069;29;20392;-77
2022/01/13 01:19:29;;;;;;;;;;;;;;;1.36;89.22;102734.31;4899412;29;20087;-76
2022/01/13 01:25:01;;;;;;;42.17;10.90;;;;;;;1.31;89.78;102736.38;4898810;29;20495;-77
2022/01/13 01:27:38;;;;;;;34.20;9.77;;;;;;;1.31;89.78;102733.72;4898407;29;20044;-76
2022/01/13 01:32:49;;;;;;;30.65;9.73;;;;;;;1.29;89.89;102725.00;4898829;29;20161;-76
2022/01/13 01:35:16;;;;;;;38.17;10.23;;;;;;;1.30;89.57;102735.53;4898827;29;20107;-76
2022/01/13 01:37:43;;;;;;;38.05;9.93;;;;;;;1.30;89.56;102727.56;4881864;29;20043;-76
2022/01/13 01:40:10;;;;;;;34.70;10.27;;;;;;;1.32;89.99;102741.59;4898663;29;20060;-77
2022/01/13 01:42:35;;;;;;;36.63;10.35;;;;;;;1.34;89.81;102749.50;4898414;29;20040;-77
2022/01/13 01:45:01;;;;;;;37.03;10.15;;;;;;;1.38;89.81;102746.59;4881752;29;20036;-77
2022/01/13 01:47:29;;;;;;;38.50;10.18;;;;;;;1.41;89.78;102742.91;4898234;29;20054;-76
2022/01/13 01:49:58;;;;;;;37.17;10.82;;;;;;;1.45;89.71;102747.06;4898564;29;20052;-76
2022/01/13 01:52:25;;;;;;;37.97;10.98;;;;;;;1.36;89.50;102739.63;4898316;29;20028;-76
2022/01/13 01:54:51;;;;;;;35.75;10.50;;;;;;;1.32;89.36;102744.28;4881268;29;20056;-76
2022/01/13 01:57:18;;;;;;;37.70;10.02;;;;;;;1.36;89.94;102755.56;4898178;29;20464;-77
2022/01/13 01:59:44;;;;;;;39.25;10.25;;;;;;;1.36;89.62;102751.13;4898130;29;20033;-76
2022/01/13 02:02:12;;;;;;;43.33;11.93;;;;;;;1.30;89.28;102748.81;4898853;29;20464;-77
2022/01/13 02:04:38;;;;;;;36.83;10.57;;;;;;;1.27;89.79;102754.28;4898293;29;20035;-76
2022/01/13 02:07:07;;;;;;;28.65;9.65;;;;;;;1.26;90.06;102754.38;4898032;29;20052;-76
2022/01/13 02:09:35;;;;;;;39.05;10.10;;;;;;;1.27;89.80;102756.09;4898300;29;20457;-76
2022/01/13 02:12:06;;;;;;;46.72;12.60;;;;;;;1.30;89.84;102755.91;4898206;29;20032;-76
2022/01/13 02:14:35;;;;;;;36.45;9.68;;;;;;;1.32;89.97;102754.88;4881513;29;20119;-76
2022/01/13 02:17:10;;;;;;;37.75;10.20;;;;;;;1.29;89.78;102749.75;4897834;29;20520;-77
2022/01/13 02:19:40;;;;;;;41.47;11.48;;;;;;;1.27;89.58;102748.13;4898162;29;20037;-76
2022/01/13 02:22:07;;;;;;;38.85;10.88;;;;;;;1.21;90.29;102753.81;4897878;29;20622;-76
2022/01/13 02:24:34;;;;;;;33.85;10.30;;;;;;;1.20;90.00;102752.09;4898101;29;20119;-77
2022/01/13 02:26:59;;;;;;;34.33;12.20;;;;;;;1.22;90.28;102750.22;4898069;29;20048;-76
2022/01/13 02:29:25;;;;;;;35.72;10.75;;;;;;;1.22;90.01;102745.75;4898057;29;20396;-76
2022/01/13 02:31:51;;;;;;;38.30;11.05;;;;;;;1.21;90.12;102743.19;4897763;29;20040;-76
2022/01/13 02:34:17;;;;;;;39.55;11.43;;;;;;;1.23;90.14;102751.91;4897815;29;20039;-76
2022/01/13 02:36:45;;;;;;;33.55;10.85;;;;;;;1.23;90.13;102743.94;4897743;29;20044;-76
2022/01/13 02:39:10;;;;;;;40.58;13.07;;;;;;;1.23;90.37;102742.16;4898030;29;20044;-76
2022/01/13 02:41:36;;;;;;;45.80;11.77;;;;;;;1.17;90.13;102733.66;4898046;29;20048;-76
2022/01/13 02:44:02;;;;;;;38.70;11.33;;;;;;;1.15;89.96;102735.56;4897767;29;20111;-77
2022/01/13 02:49:06;;;;;;;38.90;11.95;;;;;;;1.12;90.33;102725.97;4897916;29;20029;-76
2022/01/13 02:51:32;;;;;;;39.08;13.07;;;;;;;1.09;90.25;102723.47;4897608;29;20388;-76
2022/01/13 02:53:58;;;;;;;47.22;12.50;;;;;;;1.11;90.55;102710.97;4897941;29;20532;-77
2022/01/13 02:56:24;;;;;;;48.17;14.40;;;;;;;1.11;90.49;102718.06;4897770;29;20127;-77
2022/01/13 02:58:49;;;;;;;35.70;11.93;;;;;;;1.10;90.71;102716.38;4897642;29;20425;-77
2022/01/13 03:01:15;;;;;;;40.28;11.32;;;;;;;1.11;90.25;102726.03;4901668;29;20049;-76
2022/01/13 03:03:42;;;;;;;34.38;11.55;;;;;;;1.10;90.79;102724.34;4901391;29;20084;-76
2022/01/13 03:06:09;;;;;;;37.72;12.00;;;;;;;1.11;90.46;102726.91;4901464;29;20552;-77
2022/01/13 03:08:42;;;;;;;30.33;10.02;;;;;;;1.10;90.44;102732.28;4901214;29;20593;-76
2022/01/13 03:11:07;;;;;;;27.60;10.02;;;;;;;1.12;90.89;102720.66;4884607;29;20044;-77
2022/01/13 03:13:33;;;;;;;44.20;13.48;;;;;;;1.15;90.61;102727.59;4901015;29;20029;-76
2022/01/13 03:15:58;;;;;;;42.65;13.23;;;;;;;1.11;90.28;102726.03;4901305;29;20047;-76
2022/01/13 03:18:25;;;;;;;46.90;12.73;;;;;;;1.08;90.44;102729.72;4901118;29;20088;-77
2022/01/13 03:20:50;;;;;;;35.05;11.75;;;;;;;1.04;90.67;102721.09;4900891;29;20316;-77
2022/01/13 03:23:17;;;;;;;42.60;12.70;;;;;;;1.07;90.55;102720.09;4901248;29;20032;-76
2022/01/13 03:25:45;;;;;;;44.13;12.85;;;;;;;1.07;90.88;102716.56;4884496;29;20292;-78
2022/01/13 03:28:15;;;;;;;41.85;13.35;;;;;;;1.04;90.87;102715.78;4901183;29;20036;-77
2022/01/13 03:30:41;;;;;;;43.35;15.70;;;;;;;1.02;91.14;102714.16;4901560;29;20067;-77
2022/01/13 03:33:08;;;;;;;34.67;14.75;;;;;;;1.04;90.95;102707.84;4901044;29;20045;-76
2022/01/13 03:35:34;;;;;;;44.80;13.52;;;;;;;1.04;90.96;102720.25;4900952;29;20480;-76
2022/01/13 03:37:59;;;;;;;44.35;12.57;;;;;;;1.01;91.09;102717.75;4900674;29;20028;-77
2022/01/13 03:40:27;;;;;;;53.80;14.25;;;;;;;1.03;90.92;102715.88;4901011;29;20531;-76
2022/01/13 03:42:53;;;;;;;44.60;12.88;;;;;;;1.01;91.40;102725.72;4884016;29;20056;-77
2022/01/13 03:45:20;;;;;;;55.33;13.00;;;;;;;1.00;91.06;102716.91;4900977;29;20049;-76
2022/01/13 03:47:45;;;;;;;43.35;13.23;;;;;;;1.02;91.43;102716.81;4900635;29;20491;-76
2022/01/13 03:50:11;;;;;;;43.78;12.48;;;;;;;1.07;90.83;102724.53;4900993;29;20033;-77
2022/01/13 03:52:59;;;;;;;43.63;14.50;;;;;;;1.07;91.00;102732.50;4901064;29;20040;-76
2022/01/13 03:55:30;;;;;;;42.97;13.60;;;;;;;1.14;91.23;102731.19;4900390;29;20609;-77
2022/01/13 03:58:33;;;;;;;44.00;12.85;;;;;;;1.13;91.01;102732.97;4900584;29;20040;-77
2022/01/13 04:01:26;;;;;;;51.67;14.27;;;;;;;1.07;91.36;102724.53;4900478;29;20055;-76
2022/01/13 04:03:51;;;;;;;47.65;13.70;;;;;;;1.02;91.30;102723.00;4900338;29;20483;-76
2022/01/13 04:06:16;;;;;;;44.63;13.52;;;;;;;1.06;91.42;102718.38;4900164;29;20123;-77
2022/01/13 04:08:46;;;;;;;52.00;15.33;;;;;;;1.01;91.22;102718.63;4900299;29;20425;-76
2022/01/13 04:11:17;;;;;;;49.05;14.10;;;;;;;1.04;91.21;102706.97;4899246;29;20063;-76
2022/01/13 04:16:20;;;;;;;43.97;13.45;;;;;;;1.03;91.33;102698.16;4900237;29;20460;-77
2022/01/13 04:18:47;;;;;;;48.60;14.75;;;;;;;1.02;91.58;102691.13;4900377;29;20037;-76
2022/01/13 04:21:13;;;;;;;44.08;14.45;;;;;;;0.99;91.38;102699.25;4900177;29;20461;-76
2022/01/13 04:23:39;;;;;;;53.55;15.85;;;;;;;0.98;91.23;102689.59;4900282;29;20028;-77
2022/01/13 04:26:05;;;;;;;47.88;15.65;;;;;;;0.95;91.54;102697.72;4883218;29;20471;-77
2022/01/13 04:28:32;;;;;;;53.10;15.90;;;;;;;0.98;91.68;102691.38;4899824;29;20488;-76
2022/01/13 04:31:01;;;;;;;47.72;13.63;;;;;;;0.98;91.87;102696.69;4900026;29;20460;-77
2022/01/13 04:33:31;;;;;;;51.65;14.15;;;;;;;0.96;91.97;102699.44;4882826;29;20043;-77
2022/01/13 04:35:57;;;;;;;59.75;16.88;;;;;;;0.96;92.12;102693.28;4899606;29;20393;-76
2022/01/13 04:38:23;;;;;;;56.20;16.95;;;;;;;0.97;92.01;102687.03;4899778;29;20446;-77
2022/01/13 04:40:54;;;;;;;46.08;15.38;;;;;;;0.96;91.62;102686.16;4899601;29;20028;-77
2022/01/13 04:43:20;;;;;;;51.75;18.45;;;;;;;0.92;91.79;102692.59;4899616;29;20036;-77
2022/01/13 04:45:47;;;;;;;54.70;13.80;;;;;;;0.91;91.88;102696.19;4899859;29;20425;-76
2022/01/13 04:48:13;;;;;;;49.30;15.38;;;;;;;0.88;91.72;102699.03;4900635;29;20036;-77
2022/01/13 04:50:38;;;;;;;54.10;15.60;;;;;;;0.88;92.04;102684.91;4900031;29;20036;-77
2022/01/13 04:53:04;;;;;;;45.47;14.68;;;;;;;0.88;92.09;102677.81;4882799;29;20036;-77
2022/01/13 04:55:32;;;;;;;53.08;16.05;;;;;;;0.88;92.06;102680.44;4899797;29;20466;-76
2022/01/13 04:57:59;;;;;;;41.38;13.75;;;;;;;0.90;92.54;102673.22;4899275;29;20036;-76
2022/01/13 05:00:25;;;;;;;41.28;14.38;;;;;;;0.87;92.39;102662.81;4899338;29;20393;-77
2022/01/13 05:02:51;;;;;;;45.95;13.45;;;;;;;0.89;91.84;102668.03;4882569;29;20033;-77
2022/01/13 05:05:16;;;;;;;57.03;18.63;;;;;;;0.91;92.27;102663.47;4899386;29;20047;-76
2022/01/13 05:07:42;;;;;;;46.03;14.55;;;;;;;0.94;92.22;102652.69;4882086;29;20044;-77
2022/01/13 05:10:08;;;;;;;42.53;16.08;;;;;;;0.95;91.75;102655.25;4899179;29;20048;-76
2022/01/13 05:12:44;;;;;;;;;;;;;;;0.93;92.21;102662.44;4899410;29;20033;-76
2022/01/13 05:15:22;;;;;;;49.92;15.63;;;;;;;0.93;91.83;102667.75;4898876;29;19922;-76
2022/01/13 05:20:28;;;;;;;40.30;12.45;;;;;;;0.84;92.06;102678.91;4899383;29;20451;-77
2022/01/13 05:22:53;;;;;;;47.78;15.38;;;;;;;0.73;92.52;102678.63;4898688;29;20033;-77
2022/01/13 05:25:20;;;;;;;45.95;15.73;;;;;;;0.65;92.57;102675.56;4899313;29;20483;-76
2022/01/13 05:27:47;;;;;;;51.40;14.18;;;;;;;0.66;92.67;102672.84;4899092;29;20056;-77
2022/01/13 05:30:15;;;;;;;52.90;15.77;;;;;;;0.69;92.63;102675.31;4899332;29;20539;-77
2022/01/13 05:32:41;;;;;;;45.85;14.98;;;;;;;0.68;92.69;102678.06;4898969;29;20040;-77
2022/01/13 05:35:06;;;;;;;44.95;15.50;;;;;;;0.67;92.83;102679.00;4898587;29;20387;-76
2022/01/13 05:37:32;;;;;;;53.90;15.23;;;;;;;0.66;93.06;102685.25;4898404;29;20041;-76
2022/01/13 05:39:58;;;;;;;55.42;17.48;;;;;;;0.67;92.76;102673.69;4898500;29;20391;-77
2022/01/13 05:42:24;;;;;;;44.45;16.33;;;;;;;0.71;92.61;102669.09;4881725;29;20471;-76
2022/01/13 05:44:49;;;;;;;40.55;14.43;;;;;;;0.71;92.77;102667.28;4898879;29;20033;-76
2022/01/13 05:47:15;;;;;;;45.80;14.73;;;;;;;0.71;92.61;102663.78;4898778;29;20127;-76
2022/01/13 05:49:42;;;;;;;50.55;15.20;;;;;;;0.72;93.04;102657.53;4898390;29;20046;-76
2022/01/13 05:52:12;;;;;;;43.25;13.68;;;;;;;0.80;92.99;102656.13;4898353;29;20032;-76
2022/01/13 05:54:38;;;;;;;51.22;17.10;;;;;;;0.77;92.28;102655.44;4898326;29;20063;-77
2022/01/13 05:57:04;;;;;;;56.00;15.90;;;;;;;0.74;92.76;102650.31;4898027;29;20047;-77
2022/01/13 05:59:29;;;;;;;48.35;15.73;;;;;;;0.69;92.54;102648.78;4898509;29;20033;-77
2022/01/13 06:01:55;;;;;;;59.05;16.25;;;;;;;0.64;92.92;102653.50;4899786;29;20040;-77
2022/01/13 06:04:20;;;;;;;49.58;14.40;;;;;;;0.61;92.99;102656.31;4898491;29;20092;-76
2022/01/13 06:06:46;;;;;;;53.08;16.05;;;;;;;0.64;92.99;102657.94;4897712;29;20137;-76
2022/01/13 06:09:11;;;;;;;49.53;15.45;;;;;;;0.65;92.83;102662.31;4897897;29;20045;-76
2022/01/13 06:11:39;;;;;;;50.70;16.77;;;;;;;0.67;92.66;102663.09;4897739;29;20029;-77
2022/01/13 06:14:06;;;;;;;56.50;17.05;;;;;;;0.65;93.09;102664.97;4898325;29;20041;-77
2022/01/13 06:16:31;;;;;;;62.38;16.55;;;;;;;0.67;93.10;102668.38;4897885;29;20126;-77
2022/01/13 06:18:57;;;;;;;59.40;17.50;;;;;;;0.68;92.92;102670.09;4897568;29;20036;-77
2022/01/13 06:21:22;;;;;;;50.15;15.63;;;;;;;0.72;92.79;102666.31;4880899;29;20119;-77
2022/01/13 06:23:48;;;;;;;48.33;15.38;;;;;;;0.73;93.07;102668.03;4897778;29;20040;-77
2022/01/13 06:26:13;;;;;;;46.30;13.90;;;;;;;0.68;92.96;102676.28;4897736;29;20079;-77
2022/01/13 06:28:38;;;;;;;55.00;16.75;;;;;;;0.74;92.96;102680.34;4897592;29;20057;-76
2022/01/13 06:31:04;;;;;;;50.90;15.77;;;;;;;0.75;93.00;102674.09;4881202;29;20036;-76
2022/01/13 06:33:29;;;;;;;61.47;16.83;;;;;;;0.79;92.98;102664.19;4897344;29;20499;-76
2022/01/13 06:35:55;;;;;;;52.78;15.00;;;;;;;0.84;92.34;102660.34;4896966;29;20444;-76
2022/01/13 06:38:20;;;;;;;49.63;13.98;;;;;;;0.86;92.65;102663.75;4897509;29;20081;-76
2022/01/13 06:40:47;;;;;;;68.32;22.05;;;;;;;0.93;92.62;102665.09;4897633;29;20040;-77
2022/01/13 06:43:12;;;;;;;69.45;21.92;;;;;;;0.89;92.47;102658.28;4897571;29;20344;-77
2022/01/13 06:45:38;;;;;;;48.57;16.70;;;;;;;0.91;91.96;102660.81;4897859;29;20433;-77
2022/01/13 06:48:04;;;;;;;49.63;14.57;;;;;;;0.79;91.72;102658.88;4897665;29;20320;-77
2022/01/13 06:50:29;;;;;;;53.63;16.67;;;;;;;0.75;92.27;102663.50;4897762;29;20056;-77
2022/01/13 06:52:55;;;;;;;48.47;13.82;;;;;;;0.75;92.42;102665.28;4880909;29;20038;-77
2022/01/13 06:55:20;;;;;;;51.35;14.23;;;;;;;0.73;92.23;102668.03;4897821;29;20041;-77
2022/01/13 06:57:48;;;;;;;48.50;14.17;;;;;;;0.75;92.63;102673.25;4897784;29;20405;-77
2022/01/13 07:00:14;;;;;;;52.53;15.32;;;;;;;0.64;92.24;102669.41;4881727;29;20309;-77
2022/01/13 07:02:39;;;;;;;;;;;;;;;0.51;93.06;102667.53;4883006;29;20048;-77
2022/01/13 07:05:06;;;;;;;56.67;16.38;;;;;;;0.48;93.26;102662.41;4882339;29;19911;-78
2022/01/13 07:07:33;;;;;;;;;;;;;;;0.53;93.62;102665.66;4898879;29;20048;-76
2022/01/13 07:09:58;;;;;;;51.20;12.88;;;;;;;0.56;93.44;102660.16;4898162;29;19915;-76
2022/01/13 07:12:24;;;;;;;49.50;16.37;;;;;;;0.61;93.54;102658.13;4898011;29;20184;-80
2022/01/13 07:14:49;;;;;;;48.57;15.93;;;;;;;0.67;93.33;102660.44;4881721;29;20694;-76
2022/01/13 07:17:15;;;;;;;54.60;15.53;;;;;;;0.72;93.13;102666.31;4898403;29;20306;-77
2022/01/13 07:19:41;;;;;;;57.67;16.17;;;;;;;0.67;93.29;102663.94;4882037;29;20048;-76
2022/01/13 07:22:07;;;;;;;43.55;13.65;;;;;;;0.67;93.46;102663.09;4881998;29;20032;-76
2022/01/13 07:24:35;;;;;;;49.70;15.23;;;;;;;0.72;92.82;102665.50;4898032;29;20048;-76
2022/01/13 07:27:01;;;;;;;51.97;14.48;;;;;;;0.77;93.04;102669.56;4881203;29;20060;-76
2022/01/13 07:29:26;;;;;;;47.30;15.07;;;;;;;0.80;93.01;102676.50;4897445;29;20072;-77
2022/01/13 07:31:51;;;;;;;47.90;13.27;;;;;;;1.13;93.93;102685.19;4897772;29;20039;-76
2022/01/13 07:34:17;;;;;;;50.33;13.83;;;;;;;1.09;91.99;102683.66;4881040;29;20276;-76
2022/01/13 07:36:42;;;;;;;54.77;14.90;;;;;;;0.91;92.17;102679.41;4897644;29;20299;-76
2022/01/13 07:39:08;;;;;;;47.22;12.18;;;;;;;1.06;92.76;102683.84;4898613;29;20512;-76
2022/01/13 07:41:34;;;;;;;48.72;16.17;;;;;;;1.00;92.33;102692.16;4898531;29;20039;-76
2022/01/13 07:44:00;;;;;;;46.92;14.25;;;;;;;0.90;92.43;102690.94;4898388;29;20036;-76
2022/01/13 07:46:25;;;;;;;;;;;;;;;0.83;92.34;102698.44;4901204;29;20041;-76
2022/01/13 07:48:51;;;;;;;41.60;13.52;;;;;;;0.78;92.47;102705.78;4902458;29;19918;-76
2022/01/13 07:51:17;;;;;;;49.38;12.65;;;;;;;0.68;92.41;102704.59;4903648;29;20033;-77
2022/01/13 07:53:42;;;;;;;42.20;12.57;;;;;;;0.72;92.66;102703.47;4885845;29;20384;-77
2022/01/13 07:56:08;;;;;;;46.42;16.90;;;;;;;0.56;92.63;102706.09;4901754;29;20043;-77
2022/01/13 07:58:35;;;;;;;57.25;15.00;;;;;;;0.49;92.93;102698.59;4901179;29;20441;-77
2022/01/13 08:01:01;;;;;;;47.53;13.48;;;;;;;0.52;93.16;102690.47;4901469;29;20036;-77
2022/01/13 08:03:26;;;;;;;;;;;;;;;0.44;92.80;102704.16;4900930;29;20044;-77
2022/01/13 08:05:52;;;;;;;46.13;13.32;;;;;;;0.62;94.37;102696.97;4900897;29;19915;-77
2022/01/13 08:08:20;;;;;;;46.57;14.37;;;;;;;0.46;93.29;102693.44;4883731;29;20064;-77
2022/01/13 08:10:46;;;;;;;53.20;14.55;;;;;;;0.47;93.11;102700.47;4900082;29;20061;-77
2022/01/13 08:13:12;;;;;;;53.63;14.52;;;;;;;0.62;93.23;102697.81;4900508;29;20123;-76
2022/01/13 08:15:37;;;;;;;46.72;13.10;;;;;;;0.84;93.85;102712.56;4900377;29;20055;-77
2022/01/13 08:20:47;;;;;;;40.63;15.20;;;;;;;0.63;92.80;102699.53;4900446;29;20411;-77
2022/01/13 08:23:13;;;;;;;51.80;15.80;;;;;;;0.75;93.18;102700.63;4900275;29;20032;-77
2022/01/13 08:25:38;;;;;;;43.70;11.82;;;;;;;0.75;93.05;102702.44;4901291;29;20060;-77
2022/01/13 08:28:05;;;;;;;51.17;12.77;;;;;;;0.67;92.61;102700.22;4901426;29;20032;-77
2022/01/13 08:30:31;;;;;;;49.78;13.70;;;;;;;0.54;92.89;102709.78;4902257;29;20392;-77
2022/01/13 08:32:57;;;;;;;55.47;12.93;;;;;;;0.50;93.02;102711.78;4901073;29;20129;-77
2022/01/13 08:35:22;;;;;;;47.08;13.65;;;;;;;0.54;92.87;102709.78;4900591;29;20088;-77
2022/01/13 08:37:47;;;;;;;48.45;14.98;;;;;;;0.58;93.10;102708.69;4900056;29;20046;-76
2022/01/13 08:40:14;;;;;;;43.38;12.80;;;;;;;0.68;93.06;102707.25;4900358;29;20071;-77
2022/01/13 08:42:40;;;;;;;55.40;12.95;;;;;;;0.64;92.31;102705.69;4900257;29;20040;-77
2022/01/13 08:45:08;;;;;;;40.90;14.00;;;;;;;0.63;92.35;102707.50;4899630;29;20504;-77
2022/01/13 08:47:33;;;;;;;47.42;14.25;;;;;;;0.63;92.58;102706.63;4899735;29;20428;-77
2022/01/13 08:49:59;;;;;;;50.92;13.20;;;;;;;0.72;92.49;102708.75;4899838;29;20080;-77
2022/01/13 08:52:24;;;;;;;48.90;13.40;;;;;;;0.78;92.42;102719.06;4900378;29;20384;-77
2022/01/13 08:54:51;;;;;;;47.88;12.93;;;;;;;0.79;92.65;102715.47;4900034;29;20029;-77
2022/01/13 08:57:17;;;;;;;41.63;13.73;;;;;;;0.96;92.83;102723.31;4899552;29;20396;-77
2022/01/13 08:59:42;;;;;;;46.90;14.48;;;;;;;0.85;92.06;102733.69;4900649;29;20039;-77
2022/01/13 09:02:09;;;;;;;44.88;13.45;;;;;;;0.84;92.23;102729.34;4900323;29;20039;-77
2022/01/13 09:04:34;;;;;;;48.97;14.27;;;;;;;0.81;91.60;102734.81;4900570;29;20483;-77
2022/01/13 09:07:00;;;;;;;43.33;12.23;;;;;;;0.77;92.40;102727.09;4900264;29;20048;-77
2022/01/13 09:09:25;;;;;;;44.22;12.98;;;;;;;0.68;91.97;102728.47;4900086;29;20273;-77
2022/01/13 09:11:50;;;;;;;44.20;13.10;;;;;;;0.69;92.40;102724.88;4883490;29;20052;-77
2022/01/13 09:14:17;;;;;;;43.40;10.18;;;;;;;0.68;92.36;102733.78;4883808;29;20068;-78
2022/01/13 09:16:46;;;;;;;38.03;14.55;;;;;;;0.62;92.34;102729.66;4900823;29;20028;-77
2022/01/13 09:19:14;;;;;;;38.53;11.35;;;;;;;0.65;92.56;102739.25;4883714;29;20080;-78
2022/01/13 09:21:42;;;;;;;40.97;12.32;;;;;;;0.72;92.44;102739.78;4899667;29;20512;-77
2022/01/13 09:24:12;;;;;;;44.42;12.27;;;;;;;0.83;91.99;102740.88;4899560;29;20365;-76
2022/01/13 09:26:38;;;;;;;55.58;12.48;;;;;;;0.84;91.53;102744.41;4899412;29;20464;-77
2022/01/13 09:29:06;;;;;;;42.80;13.07;;;;;;;0.85;91.69;102741.66;4882756;29;20032;-76
2022/01/13 09:31:32;;;;;;;49.67;13.15;;;;;;;0.76;92.08;102733.34;4899546;29;20416;-77
2022/01/13 09:33:58;;;;;;;43.63;13.50;;;;;;;0.72;92.12;102739.78;4899408;29;20037;-77
2022/01/13 09:36:24;;;;;;;;;;;;;;;0.75;92.05;102737.78;4899491;29;20045;-77
2022/01/13 09:38:49;;;;;;;51.80;13.13;;;;;;;0.82;92.26;102739.19;4898962;29;20259;-76
2022/01/13 09:41:15;;;;;;;59.03;11.43;;;;;;;0.89;92.39;102737.03;4882036;29;20457;-77
2022/01/13 09:43:42;;;;;;;;;;;;;;;0.93;91.70;102733.25;4898916;29;20032;-77
2022/01/13 09:46:08;;;;;;;38.13;12.85;;;;;;;1.00;91.76;102745.25;4898030;29;19915;-77
2022/01/13 09:48:38;;;;;;;46.90;14.38;;;;;;;1.03;91.43;102748.59;4898213;29;20044;-76
2022/01/13 09:51:04;;;;;;;48.22;13.45;;;;;;;0.97;91.72;102746.28;4898943;29;20028;-77
2022/01/13 09:53:29;;;;;;;47.70;13.32;;;;;;;0.96;91.92;102749.00;4881909;29;20348;-77
2022/01/13 09:55:54;;;;;;;55.38;14.05;;;;;;;0.94;91.43;102749.09;4898353;29;20123;-78
2022/01/13 09:58:20;;;;;;;51.67;13.55;;;;;;;1.03;91.87;102753.03;4899509;29;20029;-79
2022/01/13 10:00:45;;;;;;;52.42;14.23;;;;;;;0.95;91.56;102757.91;4898657;29;20036;-77
2022/01/13 10:03:15;;;;;;;49.28;14.93;;;;;;;0.90;92.06;102752.84;4899153;29;20096;-77
2022/01/13 10:05:50;;;;;;;52.17;17.05;;;;;;;0.95;91.88;102748.16;4898020;29;20040;-77
2022/01/13 10:08:16;;;;;;;49.50;14.82;;;;;;;0.95;92.02;102737.53;4898601;29;20057;-77
2022/01/13 10:10:43;;;;;;;;;;;;;;;0.99;91.63;102752.34;4897986;29;20588;-77
2022/01/13 10:13:11;;;;;;;44.10;13.00;;;;;;;1.00;91.75;102748.75;4899490;29;19963;-77
2022/01/13 10:18:46;;;;;;;45.70;13.90;;;;;;;1.13;92.45;102751.56;4898089;29;20514;-77
2022/01/13 10:21:14;;;;;;;49.45;16.73;;;;;;;1.19;91.63;102755.69;4881463;29;20031;-77
2022/01/13 10:24:09;;;;;;;51.55;15.07;;;;;;;1.19;91.22;102748.56;4897853;29;20028;-77
2022/01/13 10:26:36;;;;;;;48.15;14.73;;;;;;;1.21;91.32;102749.34;4898397;29;20106;-77
2022/01/13 10:29:04;;;;;;;45.80;17.50;;;;;;;1.30;91.17;102747.94;4880985;29;20539;-77
2022/01/13 10:31:48;;;;;;;50.83;15.98;;;;;;;1.32;90.96;102740.75;4897828;29;20112;-77
2022/01/13 10:34:18;;;;;;;54.50;15.73;;;;;;;1.38;90.69;102735.97;4898012;29;20040;-77
2022/01/13 10:37:04;;;;;;;60.63;16.65;;;;;;;1.43;90.60;102737.50;4898047;29;20518;-76
2022/01/13 10:39:50;;;;;;;52.10;15.05;;;;;;;1.43;90.14;102745.47;4897838;29;20081;-77
2022/01/13 10:45:26;;;;;;;52.13;15.50;;;;;;;1.43;90.14;102727.72;4897851;29;20055;-77
2022/01/13 10:47:55;;;;;;;57.67;17.90;;;;;;;1.43;90.35;102732.19;4888866;29;20365;-77
2022/01/13 10:50:25;;;;;;;52.92;16.20;;;;;;;1.43;90.47;102726.88;4898984;29;20033;-79
2022/01/13 10:52:50;;;;;;;50.65;16.33;;;;;;;1.43;90.21;102732.19;4898605;29;20028;-78
2022/01/13 10:55:19;;;;;;;46.40;15.65;;;;;;;1.55;90.43;102726.13;4898480;29;20029;-78
2022/01/13 10:57:46;;;;;;;50.05;14.93;;;;;;;1.66;89.94;102721.03;4898358;29;20032;-77
2022/01/13 11:00:17;;;;;;;48.28;14.55;;;;;;;1.67;89.73;102717.44;4900005;29;20032;-78
2022/01/13 11:02:59;;;;;;;47.25;14.60;;;;;;;1.71;89.19;102721.63;4882278;29;20073;-77
2022/01/13 11:05:26;;;;;;;49.30;16.23;;;;;;;1.81;89.32;102721.91;4899016;29;20039;-77
2022/01/13 11:07:52;;;;;;;46.15;14.00;;;;;;;1.84;89.14;102722.59;4881380;29;20404;-77
2022/01/13 11:10:18;;;;;;;56.53;15.90;;;;;;;1.89;89.49;102731.16;4898497;29;20047;-79
2022/01/13 11:12:44;;;;;;;47.45;14.00;;;;;;;1.90;89.04;102726.69;4881521;29;20049;-77
2022/01/13 11:15:15;;;;;;;51.17;13.95;;;;;;;2.03;88.52;102722.34;4881957;29;20438;-77
2022/01/13 11:17:44;;;;;;;38.45;13.02;;;;;;;2.09;88.21;102724.63;4898690;29;20033;-78
2022/01/13 11:20:14;;;;;;;52.38;15.07;;;;;;;2.11;88.05;102716.56;4898484;29;20116;-77
2022/01/13 11:22:42;;;;;;;41.60;13.82;;;;;;;2.08;87.86;102704.31;4885659;29;20487;-77
2022/01/13 11:25:11;;;;;;;43.88;12.55;;;;;;;2.11;87.91;102704.13;4902523;29;20040;-77
2022/01/13 11:27:38;;;;;;;45.80;13.82;;;;;;;2.13;87.60;102706.69;4885937;29;20060;-78
2022/01/13 11:30:07;;;;;;;47.22;13.65;;;;;;;2.26;87.56;102699.66;4886066;29;20033;-78
2022/01/13 11:32:33;;;;;;;37.65;13.88;;;;;;;2.30;87.14;102696.72;4902417;29;20036;-78
2022/01/13 11:34:59;;;;;;;43.30;15.50;;;;;;;2.30;87.20;102691.41;4902301;29;20036;-77
2022/01/13 11:37:26;;;;;;;39.20;12.55;;;;;;;2.32;86.91;102684.19;4902160;29;20425;-77
2022/01/13 11:39:52;;;;;;;37.97;13.80;;;;;;;2.47;86.61;102685.00;4902865;29;20032;-77
2022/01/13 11:42:18;;;;;;;36.50;13.55;;;;;;;2.46;85.71;102680.63;4902233;29;20028;-78
2022/01/13 11:44:44;;;;;;;42.60;14.55;;;;;;;2.40;85.62;102671.22;4904325;29;20060;-79
2022/01/13 11:47:25;;;;;;;40.47;13.18;;;;;;;2.55;85.62;102671.19;4886617;29;20040;-78